Item Display Status Humidity-temperature Sensor

Elevation Above Sea Level: 3 m

 

Deployed Sensor

  • Serial Number: 20199373
  • NDBC Property Number: 41831
  • Start Date: 3/30/2023 (01:08:07 Z)
  • End Date: Currently Active
Relative Humidity [%]     6 entries per hour
Showing data from 4/17/2024 (15:00:00 Z) to 4/16/2024 (00:00:01 Z)
Previous Next [ Day | 3-Days | 7-Days ]
First Last
Prev [ Day | 3-Days | 7-Days ] Next
First Last

Start Time:     :
End Time:     :     
Time (in GMT) :00 :50 :40 :30 :20 :10
Previous Next [ Day | 3-Days | 7-Days ]
First Last
Prev [ Day | 3-Days | 7-Days ] Next
First Last


123 => good data
MM => data is determined as missing
-- => data not received/configured
Back to Top Back to Top
4/17/2024 15:00 to 14:10 89.20 88.90 89.24 90.34 90.59 90.81
4/17/2024 14:00 to 13:10 90.89 90.36 91.05 91.97 91.37 91.27
4/17/2024 13:00 to 12:10 92.66 93.22 93.12 93.28 93.14 93.14
4/17/2024 12:00 to 11:10 93.36 93.56 93.82 93.66 93.32 93.22
4/17/2024 11:00 to 10:10 92.92 92.98 92.58 92.52 92.88 93.30
4/17/2024 10:00 to 9:10 -- -- -- -- -- --
4/17/2024 09:00 to 8:10 92.21 92.15 91.85 91.43 91.79 92.49
4/17/2024 08:00 to 7:10 92.52 92.58 92.35 93.12 92.21 91.45
4/17/2024 07:00 to 6:10 91.57 91.75 91.99 92.21 92.07 91.67
4/17/2024 06:00 to 5:10 92.17 91.91 92.03 92.31 92.41 91.95
4/17/2024 05:00 to 4:10 91.87 91.17 91.11 91.03 90.99 91.19
4/17/2024 04:00 to 3:10 91.01 90.55 90.73 91.41 90.59 90.20
4/17/2024 03:00 to 2:10 90.50 90.61 91.45 90.55 89.84 89.84
4/17/2024 02:00 to 1:10 89.60 88.96 89.76 89.30 89.58 89.14
4/17/2024 01:00 to 0:10 89.04 88.47 86.71 85.52 84.78 85.58
4/17/2024 00:00 to 23:10 85.10 86.24 86.71 86.22 86.44 86.06
4/16/2024 23:00 to 22:10 86.06 85.46 85.40 85.04 86.08 86.93
4/16/2024 22:00 to 21:10 86.64 87.01 86.89 87.31 86.97 87.01
4/16/2024 21:00 to 20:10 88.35 88.96 89.18 89.86 89.88 89.70
4/16/2024 20:00 to 19:10 90.42 90.81 91.13 91.49 91.69 91.49
4/16/2024 19:00 to 18:10 91.93 91.97 91.63 91.81 91.67 91.77
4/16/2024 18:00 to 17:10 92.11 91.81 91.93 92.01 92.09 92.47
4/16/2024 17:00 to 16:10 92.41 92.49 92.47 92.37 92.33 92.21
4/16/2024 16:00 to 15:10 92.07 91.95 91.81 91.45 91.13 91.45
4/16/2024 15:00 to 14:10 91.31 91.45 91.35 91.13 91.35 91.77
4/16/2024 14:00 to 13:10 91.91 92.25 92.25 92.52 92.68 92.47
4/16/2024 13:00 to 12:10 -- -- -- -- -- --
4/16/2024 12:00 to 11:10 -- -- -- -- -- --
4/16/2024 11:00 to 10:10 93.20 92.90 93.18 93.86 94.08 94.24
4/16/2024 10:00 to 9:10 94.10 93.96 93.76 93.48 93.68 93.54
4/16/2024 09:00 to 8:10 93.22 92.86 92.45 92.17 92.07 91.97
4/16/2024 08:00 to 7:10 91.87 91.89 91.51 91.63 91.55 92.01
4/16/2024 07:00 to 6:10 91.77 91.97 92.41 92.76 92.68 92.56
4/16/2024 06:00 to 5:10 92.37 91.83 91.79 91.73 91.15 90.77
4/16/2024 05:00 to 4:10 90.93 91.45 91.25 91.13 91.13 90.69
4/16/2024 04:00 to 3:10 90.18 89.28 90.40 91.25 90.44 89.78
4/16/2024 03:00 to 2:10 89.44 89.88 89.36 89.48 89.34 89.90
4/16/2024 02:00 to 1:10 89.72 89.58 91.33 90.83 90.65 89.66
4/16/2024 01:00 to 0:10 89.40 88.23 88.53 87.05 86.79 87.03

 

 

 

Air Temperature [°C]     6 entries per hour
Showing data from 4/17/2024 (15:00:00 Z) to 4/16/2024 (00:00:01 Z)
Previous Next [ Day | 3-Days | 7-Days ]
First Last
Prev [ Day | 3-Days | 7-Days ] Next
First Last

Start Time:     :
End Time:     :     
Time (in GMT) :00 :50 :40 :30 :20 :10
Previous Next [ Day | 3-Days | 7-Days ]
First Last
Prev [ Day | 3-Days | 7-Days ] Next
First Last


123 => good data
MM => data is determined as missing
-- => data not received/configured
Back to Top Back to Top
4/17/2024 15:00 to 14:10 27.60 27.65 27.64 27.56 27.52 27.52
4/17/2024 14:00 to 13:10 27.50 27.30 27.10 27.21 27.25 26.97
4/17/2024 13:00 to 12:10 27.05 27.15 27.14 27.16 27.18 27.10
4/17/2024 12:00 to 11:10 27.13 27.09 27.14 27.21 27.15 27.18
4/17/2024 11:00 to 10:10 27.12 27.21 27.20 27.12 27.14 27.26
4/17/2024 10:00 to 9:10 -- -- -- -- -- --
4/17/2024 09:00 to 8:10 27.33 27.35 27.36 27.29 27.33 27.31
4/17/2024 08:00 to 7:10 27.36 27.41 27.38 27.53 27.56 27.51
4/17/2024 07:00 to 6:10 27.52 27.53 27.52 27.50 27.54 27.58
4/17/2024 06:00 to 5:10 27.62 27.58 27.58 27.53 27.62 27.59
4/17/2024 05:00 to 4:10 27.61 27.70 27.66 27.64 27.66 27.66
4/17/2024 04:00 to 3:10 27.69 27.61 27.66 27.71 27.75 27.69
4/17/2024 03:00 to 2:10 27.68 27.58 27.77 27.93 27.71 27.82
4/17/2024 02:00 to 1:10 27.84 27.80 27.78 27.78 27.75 27.76
4/17/2024 01:00 to 0:10 27.91 28.05 28.08 28.27 28.33 28.24
4/17/2024 00:00 to 23:10 28.19 28.16 28.01 28.15 28.10 28.10
4/16/2024 23:00 to 22:10 28.04 27.99 27.97 28.05 27.80 28.10
4/16/2024 22:00 to 21:10 27.91 27.91 27.91 27.89 27.89 27.79
4/16/2024 21:00 to 20:10 27.88 27.76 27.72 27.61 27.63 27.39
4/16/2024 20:00 to 19:10 27.42 27.47 27.42 27.36 27.42 27.34
4/16/2024 19:00 to 18:10 27.36 27.40 27.28 27.34 27.31 27.28
4/16/2024 18:00 to 17:10 27.29 27.22 27.23 27.19 27.12 27.20
4/16/2024 17:00 to 16:10 27.22 27.21 27.19 27.14 27.32 27.24
4/16/2024 16:00 to 15:10 27.18 27.22 27.33 27.27 27.24 27.24
4/16/2024 15:00 to 14:10 27.25 27.34 27.29 27.27 27.24 27.25
4/16/2024 14:00 to 13:10 27.13 27.11 27.01 27.09 27.04 27.01
4/16/2024 13:00 to 12:10 -- -- -- -- -- --
4/16/2024 12:00 to 11:10 -- -- -- -- -- --
4/16/2024 11:00 to 10:10 26.99 27.00 26.89 26.99 26.99 26.99
4/16/2024 10:00 to 9:10 27.03 27.06 27.13 27.07 27.17 27.14
4/16/2024 09:00 to 8:10 27.09 27.17 27.21 27.18 27.17 27.21
4/16/2024 08:00 to 7:10 27.23 27.37 27.21 27.26 27.24 27.29
4/16/2024 07:00 to 6:10 27.30 27.26 27.33 27.34 27.28 27.32
4/16/2024 06:00 to 5:10 27.37 27.39 27.39 27.43 27.50 27.51
4/16/2024 05:00 to 4:10 27.39 27.50 27.48 27.37 27.55 27.48
4/16/2024 04:00 to 3:10 27.65 27.57 27.47 27.60 27.53 27.57
4/16/2024 03:00 to 2:10 27.55 27.59 27.50 27.57 27.49 27.57
4/16/2024 02:00 to 1:10 27.56 27.49 27.51 27.48 27.54 27.51
4/16/2024 01:00 to 0:10 27.64 27.78 27.79 27.92 27.87 27.96